CheckWX is a tool to help pilots better visualize weather data.  It is not intended as a substitute for an official pre-flight weather briefing.

00:54:49 UTC

LTFE TAF
Milas Bodrum International Airport
Bodrum, Turkey
TAF LTFE 012240Z 0200/0224 VRB02KT 9999 FEW035 BKN200 BECMG 0203/0206 -SHRA BKN030 BECMG 0206/0208 12012KT BECMG 0208/0210 1801525KT TEMPO 0209/0212 4000 TSRA FEW020CB BKN030 BECMG 0210/0212 24014KT BECMG 0213/0217 VRB02KT

Apr-2@
00:00 UTC

Apr-2 @ 00:00 UTC

Apr-2@
03:00 UTC

Apr-2 @ 03:00 UTC

TAF LTFE 012240Z 0200/0224 VRB02KT 9999 FEW035 BKN200
Wind
  • Variable at 2 KTS
Cloud Levels
  • Few at 3,500' AGL
  • Broken at 20,000' AGL

Apr-2@
03:00 UTC

Apr-2 @ 03:00 UTC

Apr-2@
06:00 UTC

Apr-2 @ 06:00 UTC

BECMG 0203/0206 -SHRA BKN030

Becoming

Becoming Conditions expected by Thu, Apr 2, 2020 @ 06:00 UTC

Wind
  • Variable at 2 KTS
Conditions
Light Showers, Rain
Cloud Levels
  • Broken at 3,000' AGL

Apr-2@
06:00 UTC

Apr-2 @ 06:00 UTC

Apr-2@
08:00 UTC

Apr-2 @ 08:00 UTC

BECMG 0206/0208 12012KT

Becoming

Becoming Conditions expected by Thu, Apr 2, 2020 @ 08:00 UTC

Wind
  • 120° at 12 KTS
Conditions
Light Showers, Rain
Cloud Levels
  • Broken at 3,000' AGL

Apr-2@
08:00 UTC

Apr-2 @ 08:00 UTC

Apr-2@
10:00 UTC

Apr-2 @ 10:00 UTC

BECMG 0208/0210 1801525KT

Becoming

Becoming Conditions expected by Thu, Apr 2, 2020 @ 10:00 UTC

Wind
  • 180° at 15 KTS
Conditions
Light Showers, Rain
Cloud Levels
  • Broken at 3,000' AGL

Apr-2@
09:00 UTC

Apr-2 @ 09:00 UTC

Apr-2@
12:00 UTC

Apr-2 @ 12:00 UTC

TEMPO 0209/0212 4000 TSRA FEW020CB BKN030

Temporary

Temporary Changes expected for less than half the time period

Conditions
Thunderstorm, Rain
Cloud Levels
  • Few at 2,000' AGL
  • Broken at 3,000' AGL

Apr-2@
10:00 UTC

Apr-2 @ 10:00 UTC

Apr-2@
13:00 UTC

Apr-2 @ 13:00 UTC

BECMG 0210/0212 24014KT

Becoming

Becoming Conditions expected by Thu, Apr 2, 2020 @ 12:00 UTC

Wind
  • 240° at 14 KTS
Conditions
Light Showers, Rain
Cloud Levels
  • Broken at 3,000' AGL

Apr-2@
13:00 UTC

Apr-2 @ 13:00 UTC

Apr-3@
00:00 UTC

Apr-3 @ 00:00 UTC

BECMG 0213/0217 VRB02KT

Becoming

Becoming Conditions expected by Thu, Apr 2, 2020 @ 17:00 UTC

Wind
  • Variable at 2 KTS
Conditions
Light Showers, Rain
Cloud Levels
  • Broken at 3,000' AGL